This is the latest recevied weather packets stored in our database for station/object K0JSC-13. If no packets are shown the sender has not sent any weather packets the latest 10 day(s).
| Time | Temp. | Humidity | Pressure | Rain* | Wind** | Luminosity | Snow |
|---|---|---|---|---|---|---|---|
| 1778135223 | 2.78° C | 80% | 1005.5 hPa | 0 mm | - | - | - |
| 1778134143 | 1.67° C | 84% | 1005.4 hPa | 0 mm | - | - | - |
| 1778133740 | 1.11° C | 85% | 1005.4 hPa | 0 mm | - | - | - |
| 1778131217 | 1.11° C | 87% | 1005.2 hPa | 0 mm | - | - | - |
| 1778128698 | 1.67° C | 86% | 1005.2 hPa | 0 mm | - | - | - |
| 1778128023 | 1.67° C | 86% | 1005.1 hPa | 0 mm | - | - | - |
| 1778126043 | 1.11° C | 87% | 1005 hPa | 0 mm | - | - | - |
| 1778123343 | 2.22° C | 83% | 1004.7 hPa | 0 mm | - | - | - |
| 1778120283 | 3.33° C | 79% | 1004.3 hPa | 0 mm | - | - | - |
| 1778118303 | 6.67° C | 63% | 1004.5 hPa | 0 mm | - | - | - |
| 1778117898 | 7.78° C | 62% | 1004.5 hPa | 0 mm | - | - | - |
| 1778116817 | 8.89° C | 60% | 1004.5 hPa | 0 mm | - | - | - |
| 1778114163 | 7.78° C | 63% | 1004.6 hPa | 0 mm | - | - | - |
| 1778113623 | 6.11° C | 69% | 1004.7 hPa | 0 mm | - | - | - |
| 1778108403 | 5.56° C | 72% | 1004.4 hPa | 1.02 mm | - | - | - |
| 1778106424 | 6.67° C | 72% | 1004.5 hPa | 2.79 mm | - | - | - |
| 1778100303 | 5° C | 75% | 1005 hPa | 3.3 mm | - | - | - |
| 1778099763 | 5° C | 77% | 1005.2 hPa | 3.3 mm | - | - | - |
| 1778097603 | 3.89° C | 85% | 1004.7 hPa | 3.81 mm | - | - | - |
| 1778094544 | 3.89° C | 88% | 1004.6 hPa | 1.27 mm | - | - | - |
| 1778094004 | 3.89° C | 90% | 1004.6 hPa | 1.02 mm | - | - | - |
| 1778090044 | 1.11° C | 93% | 1004.7 hPa | 0 mm | - | - | - |
| 1778087883 | 1.11° C | 93% | 1004 hPa | 0 mm | - | - | - |
| 1778086578 | 1.11° C | 93% | 1004.3 hPa | 0 mm | - | - | - |
| 1778085903 | 1.11° C | 93% | 1004.2 hPa | 0 mm | - | - | - |
* Rain latest hour (hover to see other rain measurements)
** Current wind speed in m/s (hover to see current wind gust speed)